首页
METAR-TAF:

METAR-TAF

机场 :

沙卡國王國際機場

德班, 南非共和國

纬度: 29-36-52S, 经度: 031-06-59E, 海拔: 90米

当前天气观测

该预报发布于29分钟前的10:00 UTC
风速8节,风向南转南东,在东转东南南转西南之间变化
温度 22°C
湿度 65%
气压 1019 hPa
能见度10公里或以上
少量云层高于2200英尺
多云层高于3000英尺

METAR: FALE 201000Z 15008KT 120V200 9999 FEW022 BKN030 22/15 Q1019 NOSIG

时间: 12:29 (10:29 UTC)

预报

该预报发布于6小时和29分钟前的04:00 UTC
预报有效从20日的 06点(UTC)到 21日的 12点(UTC)
风速3节,风向多变
能见度10公里或以上
多云层高于2500英尺
成为
从 20日的 10点(UTC)到 20日的 12点(UTC)
风速12节,风向
几率 40% :
短暂存在
从 20日的 10点(UTC)到 20日的 22点(UTC)
能見度: 4000
多云层高于1500英尺
成为
从 20日的 21点(UTC)到 20日的 23点(UTC)
风速3节,风向多变
成为
从 21日的 10点(UTC)到 21日的 12点(UTC)
风速10节,风向

TAF: FALE 200400Z 2006/2112 VRB03KT 9999 BKN025 TX20/2012Z TN13/2104Z BECMG 2010/2012 18012KT PROB40 TEMPO 2010/2022 4000 RA BKN015 BECMG 2021/2023 VRB03KT BECMG 2110/2112 17010KT

超过4000个机场的气象观测和天气预报(METAR&TAF报告)。

可查询的气象台以黄色和红色小点在地图上表示。

将鼠标移到小点上方,可查看气象台名称。

然后点击查看天气观测和预报。

如需切换地图:点击带黑十字的绿色按钮放大地图;点击带横线的绿色按钮缩小地图;或者点击绿色箭头查看邻近地区的地图。


METAR-TAF: